sensor_id;sensor_type;location;lat;lon;timestamp;P1;durP1;ratioP1;P2;durP2;ratioP2
75073;SDS011;63652;51.526;5.080;2024-02-16T00:01:36;5.80;;;1.30;;
75073;SDS011;63652;51.526;5.080;2024-02-16T00:04:02;5.05;;;1.55;;
75073;SDS011;63652;51.526;5.080;2024-02-16T00:06:30;3.75;;;1.60;;
75073;SDS011;63652;51.526;5.080;2024-02-16T00:08:58;4.65;;;1.40;;
75073;SDS011;63652;51.526;5.080;2024-02-16T00:11:26;3.42;;;1.40;;
75073;SDS011;63652;51.526;5.080;2024-02-16T00:13:56;3.63;;;1.05;;
75073;SDS011;63652;51.526;5.080;2024-02-16T00:16:21;3.28;;;1.00;;
75073;SDS011;63652;51.526;5.080;2024-02-16T00:18:47;3.88;;;1.23;;
75073;SDS011;63652;51.526;5.080;2024-02-16T00:21:15;3.45;;;1.10;;
75073;SDS011;63652;51.526;5.080;2024-02-16T00:23:41;1.92;;;0.90;;
75073;SDS011;63652;51.526;5.080;2024-02-16T00:26:07;2.33;;;1.23;;
75073;SDS011;63652;51.526;5.080;2024-02-16T00:28:33;5.00;;;1.30;;
75073;SDS011;63652;51.526;5.080;2024-02-16T00:30:58;2.95;;;1.20;;
75073;SDS011;63652;51.526;5.080;2024-02-16T00:33:30;2.90;;;1.02;;
75073;SDS011;63652;51.526;5.080;2024-02-16T00:35:55;4.10;;;1.17;;
75073;SDS011;63652;51.526;5.080;2024-02-16T00:38:21;2.92;;;1.20;;
75073;SDS011;63652;51.526;5.080;2024-02-16T00:40:47;3.08;;;1.20;;
75073;SDS011;63652;51.526;5.080;2024-02-16T00:43:13;4.97;;;1.52;;
75073;SDS011;63652;51.526;5.080;2024-02-16T00:45:40;4.20;;;1.02;;
75073;SDS011;63652;51.526;5.080;2024-02-16T00:48:09;2.97;;;1.33;;
75073;SDS011;63652;51.526;5.080;2024-02-16T00:50:36;6.57;;;1.90;;
75073;SDS011;63652;51.526;5.080;2024-02-16T00:53:02;3.05;;;1.35;;
75073;SDS011;63652;51.526;5.080;2024-02-16T00:55:29;3.10;;;1.30;;
75073;SDS011;63652;51.526;5.080;2024-02-16T00:57:57;4.05;;;1.35;;
75073;SDS011;63652;51.526;5.080;2024-02-16T01:00:23;2.85;;;1.27;;
75073;SDS011;63652;51.526;5.080;2024-02-16T01:02:49;3.00;;;1.23;;
75073;SDS011;63652;51.526;5.080;2024-02-16T01:05:14;4.10;;;1.73;;
75073;SDS011;63652;51.526;5.080;2024-02-16T01:07:43;3.13;;;1.70;;
75073;SDS011;63652;51.526;5.080;2024-02-16T01:10:11;3.53;;;1.45;;
75073;SDS011;63652;51.526;5.080;2024-02-16T01:12:42;4.20;;;1.40;;
75073;SDS011;63652;51.526;5.080;2024-02-16T01:15:07;4.35;;;1.20;;
75073;SDS011;63652;51.526;5.080;2024-02-16T01:17:37;3.28;;;1.30;;
75073;SDS011;63652;51.526;5.080;2024-02-16T01:20:04;2.40;;;1.08;;
75073;SDS011;63652;51.526;5.080;2024-02-16T01:22:31;2.85;;;1.20;;
75073;SDS011;63652;51.526;5.080;2024-02-16T01:24:56;2.78;;;1.33;;
75073;SDS011;63652;51.526;5.080;2024-02-16T01:27:22;4.03;;;1.10;;
75073;SDS011;63652;51.526;5.080;2024-02-16T01:29:47;3.88;;;1.10;;
75073;SDS011;63652;51.526;5.080;2024-02-16T01:32:12;3.40;;;1.30;;
75073;SDS011;63652;51.526;5.080;2024-02-16T01:34:39;2.63;;;1.25;;
75073;SDS011;63652;51.526;5.080;2024-02-16T01:37:04;6.03;;;1.00;;
75073;SDS011;63652;51.526;5.080;2024-02-16T01:39:30;3.60;;;1.10;;
75073;SDS011;63652;51.526;5.080;2024-02-16T01:41:55;3.03;;;1.23;;
75073;SDS011;63652;51.526;5.080;2024-02-16T01:44:21;4.28;;;1.30;;
75073;SDS011;63652;51.526;5.080;2024-02-16T01:46:46;3.05;;;1.20;;
75073;SDS011;63652;51.526;5.080;2024-02-16T01:49:12;4.43;;;1.25;;
75073;SDS011;63652;51.526;5.080;2024-02-16T01:51:39;3.00;;;1.38;;
75073;SDS011;63652;51.526;5.080;2024-02-16T01:54:08;5.18;;;1.40;;
75073;SDS011;63652;51.526;5.080;2024-02-16T01:56:33;2.05;;;1.00;;
75073;SDS011;63652;51.526;5.080;2024-02-16T01:58:59;3.63;;;1.45;;
75073;SDS011;63652;51.526;5.080;2024-02-16T02:01:42;2.90;;;1.45;;
75073;SDS011;63652;51.526;5.080;2024-02-16T02:04:08;3.53;;;1.40;;
75073;SDS011;63652;51.526;5.080;2024-02-16T02:06:33;4.97;;;1.40;;
75073;SDS011;63652;51.526;5.080;2024-02-16T02:08:58;2.65;;;1.30;;
75073;SDS011;63652;51.526;5.080;2024-02-16T02:11:26;3.20;;;1.40;;
75073;SDS011;63652;51.526;5.080;2024-02-16T02:13:52;3.88;;;1.55;;
75073;SDS011;63652;51.526;5.080;2024-02-16T02:16:18;2.70;;;1.13;;
75073;SDS011;63652;51.526;5.080;2024-02-16T02:18:44;5.28;;;1.45;;
75073;SDS011;63652;51.526;5.080;2024-02-16T02:21:13;3.33;;;1.40;;
75073;SDS011;63652;51.526;5.080;2024-02-16T02:23:39;2.15;;;0.90;;
75073;SDS011;63652;51.526;5.080;2024-02-16T02:26:05;3.20;;;1.30;;
75073;SDS011;63652;51.526;5.080;2024-02-16T02:28:32;3.33;;;1.45;;
75073;SDS011;63652;51.526;5.080;2024-02-16T02:30:58;3.63;;;1.52;;
75073;SDS011;63652;51.526;5.080;2024-02-16T02:33:24;2.90;;;1.20;;
75073;SDS011;63652;51.526;5.080;2024-02-16T02:35:49;3.55;;;1.42;;
75073;SDS011;63652;51.526;5.080;2024-02-16T02:38:16;3.45;;;1.48;;
75073;SDS011;63652;51.526;5.080;2024-02-16T02:40:41;4.30;;;1.27;;
75073;SDS011;63652;51.526;5.080;2024-02-16T02:43:07;3.22;;;1.35;;
75073;SDS011;63652;51.526;5.080;2024-02-16T02:45:33;3.30;;;1.33;;
75073;SDS011;63652;51.526;5.080;2024-02-16T02:47:59;3.05;;;1.23;;
75073;SDS011;63652;51.526;5.080;2024-02-16T02:50:25;3.30;;;1.48;;
75073;SDS011;63652;51.526;5.080;2024-02-16T02:52:50;2.80;;;1.38;;
75073;SDS011;63652;51.526;5.080;2024-02-16T02:55:16;3.30;;;1.65;;
75073;SDS011;63652;51.526;5.080;2024-02-16T02:57:41;3.45;;;1.23;;
75073;SDS011;63652;51.526;5.080;2024-02-16T03:00:07;2.65;;;1.33;;
75073;SDS011;63652;51.526;5.080;2024-02-16T03:02:36;2.85;;;1.30;;
75073;SDS011;63652;51.526;5.080;2024-02-16T03:05:05;3.03;;;1.35;;
75073;SDS011;63652;51.526;5.080;2024-02-16T03:07:32;3.92;;;1.90;;
75073;SDS011;63652;51.526;5.080;2024-02-16T03:09:58;2.72;;;1.17;;
75073;SDS011;63652;51.526;5.080;2024-02-16T03:12:26;3.90;;;1.83;;
75073;SDS011;63652;51.526;5.080;2024-02-16T03:14:52;3.13;;;1.60;;
75073;SDS011;63652;51.526;5.080;2024-02-16T03:17:18;5.53;;;1.40;;
75073;SDS011;63652;51.526;5.080;2024-02-16T03:19:44;2.83;;;1.40;;
75073;SDS011;63652;51.526;5.080;2024-02-16T03:22:09;3.17;;;1.20;;
75073;SDS011;63652;51.526;5.080;2024-02-16T03:24:34;4.35;;;2.05;;
75073;SDS011;63652;51.526;5.080;2024-02-16T03:27:00;2.22;;;1.10;;
75073;SDS011;63652;51.526;5.080;2024-02-16T03:29:25;2.88;;;1.45;;
75073;SDS011;63652;51.526;5.080;2024-02-16T03:31:51;4.72;;;1.92;;
75073;SDS011;63652;51.526;5.080;2024-02-16T03:34:17;4.30;;;1.67;;
75073;SDS011;63652;51.526;5.080;2024-02-16T03:36:42;3.53;;;1.60;;
75073;SDS011;63652;51.526;5.080;2024-02-16T03:39:07;6.15;;;1.65;;
75073;SDS011;63652;51.526;5.080;2024-02-16T03:41:33;4.18;;;1.73;;
75073;SDS011;63652;51.526;5.080;2024-02-16T03:43:59;4.85;;;1.60;;
75073;SDS011;63652;51.526;5.080;2024-02-16T03:46:25;5.82;;;1.30;;
75073;SDS011;63652;51.526;5.080;2024-02-16T03:48:51;5.40;;;1.50;;
75073;SDS011;63652;51.526;5.080;2024-02-16T03:51:17;9.77;;;2.65;;
75073;SDS011;63652;51.526;5.080;2024-02-16T03:53:42;2.83;;;1.40;;
75073;SDS011;63652;51.526;5.080;2024-02-16T03:56:09;3.63;;;1.30;;
75073;SDS011;63652;51.526;5.080;2024-02-16T03:58:36;4.20;;;1.60;;
75073;SDS011;63652;51.526;5.080;2024-02-16T04:01:02;2.83;;;1.30;;
75073;SDS011;63652;51.526;5.080;2024-02-16T04:03:27;3.22;;;1.35;;
75073;SDS011;63652;51.526;5.080;2024-02-16T04:05:55;3.45;;;1.95;;
75073;SDS011;63652;51.526;5.080;2024-02-16T04:08:21;4.07;;;1.55;;
75073;SDS011;63652;51.526;5.080;2024-02-16T04:10:46;2.47;;;1.23;;
75073;SDS011;63652;51.526;5.080;2024-02-16T04:13:12;6.97;;;1.50;;
75073;SDS011;63652;51.526;5.080;2024-02-16T04:15:37;5.10;;;1.67;;
75073;SDS011;63652;51.526;5.080;2024-02-16T04:18:03;4.07;;;1.52;;
75073;SDS011;63652;51.526;5.080;2024-02-16T04:20:29;3.63;;;1.67;;
75073;SDS011;63652;51.526;5.080;2024-02-16T04:22:55;3.10;;;1.30;;
75073;SDS011;63652;51.526;5.080;2024-02-16T04:25:21;4.05;;;1.40;;
75073;SDS011;63652;51.526;5.080;2024-02-16T04:30:16;3.92;;;1.75;;
75073;SDS011;63652;51.526;5.080;2024-02-16T04:32:42;3.13;;;1.70;;
75073;SDS011;63652;51.526;5.080;2024-02-16T04:35:07;3.92;;;1.60;;
75073;SDS011;63652;51.526;5.080;2024-02-16T04:37:37;3.72;;;1.73;;
75073;SDS011;63652;51.526;5.080;2024-02-16T04:40:04;3.20;;;1.50;;
75073;SDS011;63652;51.526;5.080;2024-02-16T04:42:30;3.78;;;1.40;;
75073;SDS011;63652;51.526;5.080;2024-02-16T04:44:56;4.25;;;1.80;;
75073;SDS011;63652;51.526;5.080;2024-02-16T04:47:22;4.15;;;1.50;;
75073;SDS011;63652;51.526;5.080;2024-02-16T04:49:47;3.42;;;1.58;;
75073;SDS011;63652;51.526;5.080;2024-02-16T04:52:12;3.45;;;1.63;;
75073;SDS011;63652;51.526;5.080;2024-02-16T04:54:38;4.13;;;1.60;;
75073;SDS011;63652;51.526;5.080;2024-02-16T04:57:05;2.97;;;1.35;;
75073;SDS011;63652;51.526;5.080;2024-02-16T04:59:31;3.72;;;1.58;;
75073;SDS011;63652;51.526;5.080;2024-02-16T05:01:59;3.40;;;1.10;;
75073;SDS011;63652;51.526;5.080;2024-02-16T05:04:25;4.20;;;1.45;;
75073;SDS011;63652;51.526;5.080;2024-02-16T05:06:50;4.93;;;1.50;;
75073;SDS011;63652;51.526;5.080;2024-02-16T05:09:17;4.07;;;1.55;;
75073;SDS011;63652;51.526;5.080;2024-02-16T05:11:43;4.55;;;1.80;;
75073;SDS011;63652;51.526;5.080;2024-02-16T05:14:18;5.70;;;1.90;;
75073;SDS011;63652;51.526;5.080;2024-02-16T05:16:44;3.97;;;1.95;;
75073;SDS011;63652;51.526;5.080;2024-02-16T05:19:10;3.08;;;1.33;;
75073;SDS011;63652;51.526;5.080;2024-02-16T05:21:35;4.55;;;1.30;;
75073;SDS011;63652;51.526;5.080;2024-02-16T05:24:01;3.95;;;1.60;;
75073;SDS011;63652;51.526;5.080;2024-02-16T05:26:29;3.08;;;1.80;;
75073;SDS011;63652;51.526;5.080;2024-02-16T05:28:54;5.07;;;1.75;;
75073;SDS011;63652;51.526;5.080;2024-02-16T05:31:20;5.63;;;1.65;;
75073;SDS011;63652;51.526;5.080;2024-02-16T05:33:49;5.32;;;1.65;;
75073;SDS011;63652;51.526;5.080;2024-02-16T05:36:19;3.88;;;1.40;;
75073;SDS011;63652;51.526;5.080;2024-02-16T05:38:48;3.00;;;1.42;;
75073;SDS011;63652;51.526;5.080;2024-02-16T05:41:15;5.15;;;1.70;;
75073;SDS011;63652;51.526;5.080;2024-02-16T05:43:43;3.13;;;1.30;;
75073;SDS011;63652;51.526;5.080;2024-02-16T05:46:12;3.85;;;1.70;;
75073;SDS011;63652;51.526;5.080;2024-02-16T05:48:38;3.97;;;1.70;;
75073;SDS011;63652;51.526;5.080;2024-02-16T05:51:05;6.60;;;2.10;;
75073;SDS011;63652;51.526;5.080;2024-02-16T05:53:31;2.92;;;1.70;;
75073;SDS011;63652;51.526;5.080;2024-02-16T05:56:00;4.20;;;1.70;;
75073;SDS011;63652;51.526;5.080;2024-02-16T05:58:25;3.70;;;1.90;;
75073;SDS011;63652;51.526;5.080;2024-02-16T06:00:59;6.85;;;1.88;;
75073;SDS011;63652;51.526;5.080;2024-02-16T06:03:30;5.35;;;1.58;;
75073;SDS011;63652;51.526;5.080;2024-02-16T06:05:55;3.75;;;1.52;;
75073;SDS011;63652;51.526;5.080;2024-02-16T06:08:21;3.78;;;1.58;;
75073;SDS011;63652;51.526;5.080;2024-02-16T06:11:06;4.90;;;1.77;;
75073;SDS011;63652;51.526;5.080;2024-02-16T06:13:32;4.38;;;1.80;;
75073;SDS011;63652;51.526;5.080;2024-02-16T06:15:58;4.75;;;1.70;;
75073;SDS011;63652;51.526;5.080;2024-02-16T06:18:23;3.03;;;1.58;;
75073;SDS011;63652;51.526;5.080;2024-02-16T06:20:55;6.20;;;1.80;;
75073;SDS011;63652;51.526;5.080;2024-02-16T06:23:20;8.15;;;2.13;;
75073;SDS011;63652;51.526;5.080;2024-02-16T06:25:46;3.42;;;1.70;;
75073;SDS011;63652;51.526;5.080;2024-02-16T06:28:11;4.50;;;1.63;;
75073;SDS011;63652;51.526;5.080;2024-02-16T06:30:49;4.68;;;1.60;;
75073;SDS011;63652;51.526;5.080;2024-02-16T06:33:14;5.25;;;1.95;;
75073;SDS011;63652;51.526;5.080;2024-02-16T06:35:40;2.88;;;1.65;;
75073;SDS011;63652;51.526;5.080;2024-02-16T06:38:08;6.35;;;1.65;;
75073;SDS011;63652;51.526;5.080;2024-02-16T06:40:34;2.95;;;1.45;;
75073;SDS011;63652;51.526;5.080;2024-02-16T06:43:01;7.03;;;2.17;;
75073;SDS011;63652;51.526;5.080;2024-02-16T06:45:29;3.88;;;1.50;;
75073;SDS011;63652;51.526;5.080;2024-02-16T06:47:55;3.65;;;1.70;;
75073;SDS011;63652;51.526;5.080;2024-02-16T06:50:21;3.83;;;1.98;;
75073;SDS011;63652;51.526;5.080;2024-02-16T06:52:47;5.13;;;2.35;;
75073;SDS011;63652;51.526;5.080;2024-02-16T06:55:12;3.05;;;1.65;;
75073;SDS011;63652;51.526;5.080;2024-02-16T06:57:37;5.15;;;2.25;;
75073;SDS011;63652;51.526;5.080;2024-02-16T07:00:03;4.57;;;1.92;;
75073;SDS011;63652;51.526;5.080;2024-02-16T07:02:30;5.18;;;2.25;;
75073;SDS011;63652;51.526;5.080;2024-02-16T07:04:56;3.88;;;1.77;;
75073;SDS011;63652;51.526;5.080;2024-02-16T07:07:23;4.63;;;2.10;;
75073;SDS011;63652;51.526;5.080;2024-02-16T07:09:51;5.72;;;2.20;;
75073;SDS011;63652;51.526;5.080;2024-02-16T07:12:17;5.53;;;2.50;;
75073;SDS011;63652;51.526;5.080;2024-02-16T07:14:42;4.22;;;2.00;;
75073;SDS011;63652;51.526;5.080;2024-02-16T07:17:10;5.22;;;1.83;;
75073;SDS011;63652;51.526;5.080;2024-02-16T07:19:36;5.13;;;1.80;;
75073;SDS011;63652;51.526;5.080;2024-02-16T07:22:02;3.92;;;1.83;;
75073;SDS011;63652;51.526;5.080;2024-02-16T07:24:28;5.10;;;2.28;;
75073;SDS011;63652;51.526;5.080;2024-02-16T07:26:55;6.28;;;3.00;;
75073;SDS011;63652;51.526;5.080;2024-02-16T07:29:21;4.70;;;2.08;;
75073;SDS011;63652;51.526;5.080;2024-02-16T07:31:46;4.55;;;2.08;;
75073;SDS011;63652;51.526;5.080;2024-02-16T07:34:11;5.85;;;2.45;;
75073;SDS011;63652;51.526;5.080;2024-02-16T07:36:37;4.55;;;1.98;;
75073;SDS011;63652;51.526;5.080;2024-02-16T07:39:02;5.03;;;2.03;;
75073;SDS011;63652;51.526;5.080;2024-02-16T07:41:29;11.82;;;2.60;;
75073;SDS011;63652;51.526;5.080;2024-02-16T07:43:58;4.60;;;2.20;;
75073;SDS011;63652;51.526;5.080;2024-02-16T07:46:24;5.95;;;2.40;;
75073;SDS011;63652;51.526;5.080;2024-02-16T07:48:49;4.10;;;1.90;;
75073;SDS011;63652;51.526;5.080;2024-02-16T07:51:15;5.20;;;2.10;;
75073;SDS011;63652;51.526;5.080;2024-02-16T07:53:40;6.05;;;2.58;;
75073;SDS011;63652;51.526;5.080;2024-02-16T07:56:07;4.22;;;2.35;;
75073;SDS011;63652;51.526;5.080;2024-02-16T07:58:32;6.32;;;2.22;;
75073;SDS011;63652;51.526;5.080;2024-02-16T08:00:58;5.90;;;2.25;;
75073;SDS011;63652;51.526;5.080;2024-02-16T08:03:23;4.20;;;2.38;;
75073;SDS011;63652;51.526;5.080;2024-02-16T08:05:51;4.95;;;2.05;;
75073;SDS011;63652;51.526;5.080;2024-02-16T08:08:17;4.88;;;2.15;;
75073;SDS011;63652;51.526;5.080;2024-02-16T08:10:43;6.18;;;2.80;;
75073;SDS011;63652;51.526;5.080;2024-02-16T08:13:10;7.20;;;2.55;;
75073;SDS011;63652;51.526;5.080;2024-02-16T08:15:36;5.03;;;2.50;;
75073;SDS011;63652;51.526;5.080;2024-02-16T08:18:04;4.85;;;2.35;;
75073;SDS011;63652;51.526;5.080;2024-02-16T08:20:32;7.25;;;2.78;;
75073;SDS011;63652;51.526;5.080;2024-02-16T08:22:58;5.25;;;2.83;;
75073;SDS011;63652;51.526;5.080;2024-02-16T08:25:25;6.30;;;2.88;;
75073;SDS011;63652;51.526;5.080;2024-02-16T08:27:52;7.28;;;2.72;;
75073;SDS011;63652;51.526;5.080;2024-02-16T08:30:18;6.93;;;2.88;;
75073;SDS011;63652;51.526;5.080;2024-02-16T08:32:43;5.20;;;2.92;;
75073;SDS011;63652;51.526;5.080;2024-02-16T08:35:12;5.82;;;2.47;;
75073;SDS011;63652;51.526;5.080;2024-02-16T08:37:39;5.57;;;2.60;;
75073;SDS011;63652;51.526;5.080;2024-02-16T08:40:08;6.07;;;2.33;;
75073;SDS011;63652;51.526;5.080;2024-02-16T08:42:42;6.38;;;2.63;;
75073;SDS011;63652;51.526;5.080;2024-02-16T08:45:08;7.20;;;2.53;;
75073;SDS011;63652;51.526;5.080;2024-02-16T08:47:34;5.90;;;2.83;;
75073;SDS011;63652;51.526;5.080;2024-02-16T08:49:59;6.20;;;2.92;;
75073;SDS011;63652;51.526;5.080;2024-02-16T08:52:28;5.35;;;2.40;;
75073;SDS011;63652;51.526;5.080;2024-02-16T08:54:53;8.35;;;3.05;;
75073;SDS011;63652;51.526;5.080;2024-02-16T08:57:21;6.55;;;2.45;;
75073;SDS011;63652;51.526;5.080;2024-02-16T08:59:47;8.77;;;2.90;;
75073;SDS011;63652;51.526;5.080;2024-02-16T09:02:12;8.15;;;2.97;;
75073;SDS011;63652;51.526;5.080;2024-02-16T09:04:37;7.53;;;2.85;;
75073;SDS011;63652;51.526;5.080;2024-02-16T09:07:03;5.03;;;2.60;;
75073;SDS011;63652;51.526;5.080;2024-02-16T09:09:28;5.78;;;2.25;;
75073;SDS011;63652;51.526;5.080;2024-02-16T09:11:57;5.05;;;2.38;;
75073;SDS011;63652;51.526;5.080;2024-02-16T09:14:23;5.18;;;2.67;;
75073;SDS011;63652;51.526;5.080;2024-02-16T09:16:48;8.38;;;2.58;;
75073;SDS011;63652;51.526;5.080;2024-02-16T09:19:16;6.80;;;3.30;;
75073;SDS011;63652;51.526;5.080;2024-02-16T09:21:45;5.82;;;2.75;;
75073;SDS011;63652;51.526;5.080;2024-02-16T09:24:11;8.75;;;2.65;;
75073;SDS011;63652;51.526;5.080;2024-02-16T09:26:43;8.07;;;3.47;;
75073;SDS011;63652;51.526;5.080;2024-02-16T09:29:13;8.45;;;2.80;;
75073;SDS011;63652;51.526;5.080;2024-02-16T09:31:39;9.38;;;2.97;;
75073;SDS011;63652;51.526;5.080;2024-02-16T09:34:07;5.53;;;2.45;;
75073;SDS011;63652;51.526;5.080;2024-02-16T09:36:33;6.45;;;2.40;;
75073;SDS011;63652;51.526;5.080;2024-02-16T09:39:00;6.05;;;2.53;;
75073;SDS011;63652;51.526;5.080;2024-02-16T09:41:28;8.80;;;2.80;;
75073;SDS011;63652;51.526;5.080;2024-02-16T09:44:00;7.18;;;3.25;;
75073;SDS011;63652;51.526;5.080;2024-02-16T09:46:33;5.63;;;2.70;;
75073;SDS011;63652;51.526;5.080;2024-02-16T09:49:01;5.65;;;2.60;;
75073;SDS011;63652;51.526;5.080;2024-02-16T09:51:28;8.77;;;3.45;;
75073;SDS011;63652;51.526;5.080;2024-02-16T09:53:57;6.22;;;3.00;;
75073;SDS011;63652;51.526;5.080;2024-02-16T09:56:23;5.28;;;2.17;;
75073;SDS011;63652;51.526;5.080;2024-02-16T09:58:51;8.35;;;2.78;;
75073;SDS011;63652;51.526;5.080;2024-02-16T10:01:23;8.20;;;3.08;;
75073;SDS011;63652;51.526;5.080;2024-02-16T10:04:06;5.97;;;2.67;;
75073;SDS011;63652;51.526;5.080;2024-02-16T10:06:47;7.53;;;4.05;;
75073;SDS011;63652;51.526;5.080;2024-02-16T10:09:22;5.60;;;2.60;;
75073;SDS011;63652;51.526;5.080;2024-02-16T10:11:56;7.03;;;2.50;;
75073;SDS011;63652;51.526;5.080;2024-02-16T10:14:22;6.00;;;2.70;;
75073;SDS011;63652;51.526;5.080;2024-02-16T10:16:47;6.90;;;2.67;;
75073;SDS011;63652;51.526;5.080;2024-02-16T10:19:17;8.48;;;3.42;;
75073;SDS011;63652;51.526;5.080;2024-02-16T10:24:35;9.70;;;3.08;;
75073;SDS011;63652;51.526;5.080;2024-02-16T10:27:00;6.25;;;3.05;;
75073;SDS011;63652;51.526;5.080;2024-02-16T10:29:29;10.05;;;2.88;;
75073;SDS011;63652;51.526;5.080;2024-02-16T10:31:58;6.28;;;3.13;;
75073;SDS011;63652;51.526;5.080;2024-02-16T10:34:24;8.38;;;3.28;;
75073;SDS011;63652;51.526;5.080;2024-02-16T10:36:52;7.30;;;3.30;;
75073;SDS011;63652;51.526;5.080;2024-02-16T10:39:18;12.48;;;3.45;;
75073;SDS011;63652;51.526;5.080;2024-02-16T10:41:44;7.75;;;3.78;;
75073;SDS011;63652;51.526;5.080;2024-02-16T10:44:12;8.15;;;4.15;;
75073;SDS011;63652;51.526;5.080;2024-02-16T10:46:38;7.03;;;3.80;;
75073;SDS011;63652;51.526;5.080;2024-02-16T10:49:23;9.50;;;4.25;;
75073;SDS011;63652;51.526;5.080;2024-02-16T10:51:52;11.25;;;5.28;;
75073;SDS011;63652;51.526;5.080;2024-02-16T10:56:48;11.82;;;4.43;;
75073;SDS011;63652;51.526;5.080;2024-02-16T10:59:13;10.52;;;4.53;;
75073;SDS011;63652;51.526;5.080;2024-02-16T11:01:42;8.77;;;4.50;;
75073;SDS011;63652;51.526;5.080;2024-02-16T11:04:13;10.38;;;5.28;;
75073;SDS011;63652;51.526;5.080;2024-02-16T11:09:29;14.70;;;5.65;;
75073;SDS011;63652;51.526;5.080;2024-02-16T11:12:00;10.43;;;5.70;;
75073;SDS011;63652;51.526;5.080;2024-02-16T11:17:22;11.30;;;5.85;;
75073;SDS011;63652;51.526;5.080;2024-02-16T11:19:48;11.30;;;6.30;;
75073;SDS011;63652;51.526;5.080;2024-02-16T11:22:15;14.23;;;7.30;;
75073;SDS011;63652;51.526;5.080;2024-02-16T11:24:44;13.05;;;7.43;;
75073;SDS011;63652;51.526;5.080;2024-02-16T11:27:14;17.27;;;7.32;;
75073;SDS011;63652;51.526;5.080;2024-02-16T11:29:50;15.32;;;7.85;;
75073;SDS011;63652;51.526;5.080;2024-02-16T11:32:15;14.98;;;7.53;;
75073;SDS011;63652;51.526;5.080;2024-02-16T11:34:43;17.83;;;8.40;;
75073;SDS011;63652;51.526;5.080;2024-02-16T11:37:09;16.67;;;8.48;;
75073;SDS011;63652;51.526;5.080;2024-02-16T11:39:34;13.98;;;7.75;;
75073;SDS011;63652;51.526;5.080;2024-02-16T11:42:13;13.57;;;7.82;;
75073;SDS011;63652;51.526;5.080;2024-02-16T11:44:51;12.40;;;7.00;;
75073;SDS011;63652;51.526;5.080;2024-02-16T11:47:26;14.10;;;7.68;;
75073;SDS011;63652;51.526;5.080;2024-02-16T11:50:05;14.50;;;8.32;;
75073;SDS011;63652;51.526;5.080;2024-02-16T11:52:36;16.02;;;7.43;;
75073;SDS011;63652;51.526;5.080;2024-02-16T11:55:01;11.27;;;6.85;;
75073;SDS011;63652;51.526;5.080;2024-02-16T11:57:28;11.70;;;6.60;;
75073;SDS011;63652;51.526;5.080;2024-02-16T11:59:57;15.70;;;7.95;;
75073;SDS011;63652;51.526;5.080;2024-02-16T12:02:24;12.80;;;7.03;;
75073;SDS011;63652;51.526;5.080;2024-02-16T12:04:57;12.57;;;6.45;;
75073;SDS011;63652;51.526;5.080;2024-02-16T12:07:31;16.17;;;6.25;;
75073;SDS011;63652;51.526;5.080;2024-02-16T12:09:59;13.60;;;7.15;;
75073;SDS011;63652;51.526;5.080;2024-02-16T12:12:28;11.98;;;7.45;;
75073;SDS011;63652;51.526;5.080;2024-02-16T12:14:56;15.70;;;7.25;;
75073;SDS011;63652;51.526;5.080;2024-02-16T12:17:23;15.38;;;6.70;;
75073;SDS011;63652;51.526;5.080;2024-02-16T12:19:49;11.75;;;5.95;;
75073;SDS011;63652;51.526;5.080;2024-02-16T12:22:17;14.10;;;6.90;;
75073;SDS011;63652;51.526;5.080;2024-02-16T12:24:44;10.65;;;6.03;;
75073;SDS011;63652;51.526;5.080;2024-02-16T12:27:13;11.00;;;5.93;;
75073;SDS011;63652;51.526;5.080;2024-02-16T12:29:43;18.83;;;7.00;;
75073;SDS011;63652;51.526;5.080;2024-02-16T12:32:08;12.98;;;6.63;;
75073;SDS011;63652;51.526;5.080;2024-02-16T12:34:37;10.35;;;5.35;;
75073;SDS011;63652;51.526;5.080;2024-02-16T12:37:06;11.50;;;6.15;;
75073;SDS011;63652;51.526;5.080;2024-02-16T12:39:32;15.10;;;6.05;;
75073;SDS011;63652;51.526;5.080;2024-02-16T12:41:59;10.80;;;4.72;;
75073;SDS011;63652;51.526;5.080;2024-02-16T12:44:24;8.07;;;4.90;;
75073;SDS011;63652;51.526;5.080;2024-02-16T12:46:59;8.43;;;4.55;;
75073;SDS011;63652;51.526;5.080;2024-02-16T12:49:27;7.10;;;4.35;;
75073;SDS011;63652;51.526;5.080;2024-02-16T12:51:52;8.98;;;4.45;;
75073;SDS011;63652;51.526;5.080;2024-02-16T12:54:19;8.80;;;4.13;;
75073;SDS011;63652;51.526;5.080;2024-02-16T12:56:45;11.00;;;4.88;;
75073;SDS011;63652;51.526;5.080;2024-02-16T12:59:13;10.77;;;4.95;;
75073;SDS011;63652;51.526;5.080;2024-02-16T13:01:39;8.55;;;4.45;;
75073;SDS011;63652;51.526;5.080;2024-02-16T13:04:08;9.98;;;5.25;;
75073;SDS011;63652;51.526;5.080;2024-02-16T13:06:34;11.77;;;5.03;;
75073;SDS011;63652;51.526;5.080;2024-02-16T13:08:59;9.68;;;5.45;;
75073;SDS011;63652;51.526;5.080;2024-02-16T13:11:28;9.32;;;4.80;;
75073;SDS011;63652;51.526;5.080;2024-02-16T13:13:56;14.90;;;5.88;;
75073;SDS011;63652;51.526;5.080;2024-02-16T13:16:22;10.80;;;6.28;;
75073;SDS011;63652;51.526;5.080;2024-02-16T13:18:47;10.95;;;5.03;;
75073;SDS011;63652;51.526;5.080;2024-02-16T13:21:13;8.95;;;4.85;;
75073;SDS011;63652;51.526;5.080;2024-02-16T13:23:43;8.70;;;4.88;;
75073;SDS011;63652;51.526;5.080;2024-02-16T13:26:08;11.02;;;5.68;;
75073;SDS011;63652;51.526;5.080;2024-02-16T13:28:34;10.25;;;4.93;;
75073;SDS011;63652;51.526;5.080;2024-02-16T13:30:59;9.75;;;4.57;;
75073;SDS011;63652;51.526;5.080;2024-02-16T13:33:27;8.25;;;4.03;;
75073;SDS011;63652;51.526;5.080;2024-02-16T13:35:53;6.45;;;3.72;;
75073;SDS011;63652;51.526;5.080;2024-02-16T13:38:19;8.70;;;4.43;;
75073;SDS011;63652;51.526;5.080;2024-02-16T13:40:45;6.93;;;4.20;;
75073;SDS011;63652;51.526;5.080;2024-02-16T13:43:13;7.38;;;3.75;;
75073;SDS011;63652;51.526;5.080;2024-02-16T13:45:48;6.78;;;4.03;;
75073;SDS011;63652;51.526;5.080;2024-02-16T13:48:15;6.35;;;3.85;;
75073;SDS011;63652;51.526;5.080;2024-02-16T13:50:47;7.97;;;3.60;;
75073;SDS011;63652;51.526;5.080;2024-02-16T13:53:13;7.82;;;3.67;;
75073;SDS011;63652;51.526;5.080;2024-02-16T13:55:39;5.70;;;3.38;;
75073;SDS011;63652;51.526;5.080;2024-02-16T13:58:17;6.07;;;3.45;;
75073;SDS011;63652;51.526;5.080;2024-02-16T14:00:43;6.18;;;3.53;;
75073;SDS011;63652;51.526;5.080;2024-02-16T14:03:09;6.95;;;3.20;;
75073;SDS011;63652;51.526;5.080;2024-02-16T14:05:44;6.40;;;3.00;;
75073;SDS011;63652;51.526;5.080;2024-02-16T14:08:18;5.78;;;2.88;;
75073;SDS011;63652;51.526;5.080;2024-02-16T14:10:43;5.93;;;2.78;;
75073;SDS011;63652;51.526;5.080;2024-02-16T14:13:09;6.38;;;2.85;;
75073;SDS011;63652;51.526;5.080;2024-02-16T14:15:34;4.97;;;2.50;;
75073;SDS011;63652;51.526;5.080;2024-02-16T14:18:00;3.90;;;1.90;;
75073;SDS011;63652;51.526;5.080;2024-02-16T14:20:29;5.32;;;3.15;;
75073;SDS011;63652;51.526;5.080;2024-02-16T14:22:57;4.68;;;2.40;;
75073;SDS011;63652;51.526;5.080;2024-02-16T14:25:23;9.90;;;3.38;;
75073;SDS011;63652;51.526;5.080;2024-02-16T14:27:50;6.38;;;2.80;;
75073;SDS011;63652;51.526;5.080;2024-02-16T14:30:15;4.88;;;2.38;;
75073;SDS011;63652;51.526;5.080;2024-02-16T14:32:42;6.60;;;2.72;;
75073;SDS011;63652;51.526;5.080;2024-02-16T14:35:08;6.47;;;3.15;;
75073;SDS011;63652;51.526;5.080;2024-02-16T14:37:34;4.20;;;2.55;;
75073;SDS011;63652;51.526;5.080;2024-02-16T14:40:00;6.13;;;2.95;;
75073;SDS011;63652;51.526;5.080;2024-02-16T14:42:29;6.18;;;3.70;;
75073;SDS011;63652;51.526;5.080;2024-02-16T14:44:57;6.85;;;3.20;;
75073;SDS011;63652;51.526;5.080;2024-02-16T14:47:23;5.47;;;3.40;;
75073;SDS011;63652;51.526;5.080;2024-02-16T14:49:51;6.57;;;3.30;;
75073;SDS011;63652;51.526;5.080;2024-02-16T14:52:17;7.03;;;3.60;;
75073;SDS011;63652;51.526;5.080;2024-02-16T14:54:46;6.00;;;3.30;;
75073;SDS011;63652;51.526;5.080;2024-02-16T14:57:11;5.65;;;3.38;;
75073;SDS011;63652;51.526;5.080;2024-02-16T14:59:37;5.68;;;3.15;;